createdAt,value
2023-04-11T00:03:20.300Z,12.89
2023-04-11T00:08:16.988Z,13.02
2023-04-11T00:13:13.645Z,13.19
2023-04-11T00:18:12.602Z,13.31
2023-04-11T00:23:09.906Z,13.05
2023-04-11T00:28:06.571Z,13.26
2023-04-11T00:33:03.926Z,12.88
2023-04-11T00:38:01.474Z,12.62
2023-04-11T00:42:58.823Z,12.93
2023-04-11T00:47:55.571Z,12.34
2023-04-11T00:52:53.094Z,12.29
2023-04-11T00:57:52.822Z,12.58
2023-04-11T01:02:51.587Z,13.10
2023-04-11T01:07:50.711Z,12.90
2023-04-11T01:12:47.493Z,12.82
2023-04-11T01:17:44.943Z,12.64
2023-04-11T01:22:42.771Z,12.65
2023-04-11T01:27:41.774Z,12.58
2023-04-11T01:32:38.656Z,12.29
2023-04-11T01:37:35.413Z,12.34
2023-04-11T01:42:32.746Z,12.09
2023-04-11T01:47:30.378Z,12.02
2023-04-11T01:52:27.014Z,11.99
2023-04-11T01:57:23.636Z,11.74
2023-04-11T02:02:20.293Z,11.88
2023-04-11T02:07:17.855Z,12.09
2023-04-11T02:12:17.710Z,12.24
2023-04-11T02:17:17.163Z,11.84
2023-04-11T02:22:14.687Z,11.95
2023-04-11T02:27:11.952Z,11.93
2023-04-11T02:32:08.692Z,12.00
2023-04-11T02:37:05.915Z,12.27
2023-04-11T02:42:03.937Z,12.32
2023-04-11T02:47:03.179Z,12.38
2023-04-11T02:51:59.901Z,11.93
2023-04-11T02:56:58.502Z,11.92
2023-04-11T03:01:57.056Z,11.51
2023-04-11T03:06:56.057Z,11.51
2023-04-11T03:11:52.918Z,11.45
2023-04-11T03:16:52.128Z,11.94
2023-04-11T03:21:49.175Z,11.80
2023-04-11T03:26:47.129Z,11.87
2023-04-11T03:31:45.973Z,12.04
2023-04-11T03:36:43.838Z,12.26
2023-04-11T03:41:41.467Z,12.06
2023-04-11T03:46:41.225Z,12.13
2023-04-11T03:51:38.290Z,12.02
2023-04-11T03:56:37.148Z,11.73
2023-04-11T04:01:37.420Z,11.74
2023-04-11T04:06:36.409Z,11.69
2023-04-11T04:11:34.249Z,11.71
2023-04-11T04:16:31.034Z,11.81
2023-04-11T04:21:32.139Z,11.82
2023-04-11T04:26:30.922Z,12.02
2023-04-11T04:32:01.207Z,11.84
2023-04-11T04:37:07.174Z,11.87
2023-04-11T04:42:11.355Z,11.61
2023-04-11T04:47:10.262Z,11.61
2023-04-11T04:52:07.019Z,11.80
2023-04-11T04:57:04.014Z,12.04
2023-04-11T05:02:02.979Z,11.65
2023-04-11T05:07:00.039Z,11.67
2023-04-11T05:11:58.480Z,11.71
2023-04-11T05:16:55.293Z,11.98
2023-04-11T05:21:52.968Z,12.20
2023-04-11T05:26:49.911Z,12.35
2023-04-11T05:31:50.734Z,12.10
2023-04-11T05:36:47.941Z,12.18
2023-04-11T05:41:45.494Z,12.19
2023-04-11T05:46:42.380Z,12.01
2023-04-11T05:51:39.154Z,11.86
2023-04-11T05:56:39.447Z,11.82
2023-04-11T06:01:39.181Z,11.48
2023-04-11T06:06:42.310Z,11.50
2023-04-11T06:11:39.282Z,11.35
2023-04-11T06:16:38.956Z,11.13
2023-04-11T06:21:36.121Z,11.39
2023-04-11T06:26:33.152Z,11.48
2023-04-11T06:31:33.156Z,11.78
2023-04-11T06:36:32.231Z,11.78
2023-04-11T06:41:29.283Z,11.76
2023-04-11T06:46:26.789Z,11.56
2023-04-11T06:51:23.539Z,11.69
2023-04-11T06:56:21.398Z,11.67
2023-04-11T07:01:20.239Z,11.71
2023-04-11T07:06:20.054Z,11.77
2023-04-11T07:11:18.545Z,11.79
2023-04-11T07:16:17.609Z,11.91
2023-04-11T07:21:14.861Z,12.11
2023-04-11T07:26:17.904Z,12.15
2023-04-11T07:31:14.797Z,12.33
2023-04-11T07:36:12.825Z,12.14
2023-04-11T07:41:09.782Z,12.31
2023-04-11T07:46:09.361Z,12.63
2023-04-11T07:51:14.277Z,12.44
2023-04-11T07:56:12.584Z,12.37
2023-04-11T08:07:43.242Z,12.55
2023-04-11T08:44:11.838Z,13.52
2023-04-11T08:49:08.657Z,13.47
2023-04-11T08:54:05.782Z,13.35
2023-04-11T08:59:02.497Z,13.63
2023-04-11T09:04:04.562Z,13.60
2023-04-11T09:09:04.761Z,13.81
2023-04-11T09:14:08.199Z,14.08
2023-04-11T09:19:22.724Z,14.42
2023-04-11T09:24:21.279Z,14.48
2023-04-11T09:29:56.694Z,14.59
2023-04-11T09:35:09.766Z,14.73
2023-04-11T09:40:07.026Z,14.66
2023-04-11T09:45:04.511Z,14.81
2023-04-11T09:50:06.682Z,14.78
2023-04-11T09:55:12.357Z,14.86
2023-04-11T10:00:15.691Z,14.98
2023-04-11T10:05:16.097Z,14.97
2023-04-11T10:10:16.909Z,15.05
2023-04-11T10:15:19.523Z,15.03
2023-04-11T10:20:33.202Z,14.58
2023-04-11T10:25:30.807Z,14.58
2023-04-11T10:30:46.111Z,14.55
2023-04-11T10:35:56.051Z,14.53
2023-04-11T10:41:07.891Z,14.75
2023-04-11T10:46:18.345Z,14.89
2023-04-11T10:51:22.795Z,14.89
2023-04-11T10:56:34.673Z,14.74
2023-04-11T11:01:37.540Z,14.93
2023-04-11T11:06:47.249Z,14.55
2023-04-11T11:12:07.372Z,14.72
2023-04-11T11:17:05.408Z,14.75
2023-04-11T11:22:06.136Z,14.72
2023-04-11T11:27:03.150Z,14.67
2023-04-11T11:32:00.331Z,14.76
2023-04-11T11:36:58.451Z,14.74
2023-04-11T11:41:57.186Z,14.60
2023-04-11T11:47:03.367Z,14.51
2023-04-11T11:52:01.682Z,14.45
2023-04-11T11:56:58.399Z,14.50
2023-04-11T12:01:55.480Z,14.66
2023-04-11T12:06:52.458Z,14.68
2023-04-11T12:11:54.810Z,14.43
2023-04-11T12:17:04.378Z,13.87
2023-04-11T12:22:04.155Z,13.64
2023-04-11T12:27:07.121Z,13.55
2023-04-11T12:32:05.007Z,13.57
2023-04-11T12:37:28.865Z,13.22
2023-04-11T12:42:27.416Z,13.09
2023-04-11T12:47:27.504Z,13.27
2023-04-11T12:52:24.985Z,13.24
2023-04-11T12:57:30.978Z,13.11
2023-04-11T13:02:31.214Z,13.12
2023-04-11T13:07:34.485Z,13.28
2023-04-11T13:12:39.954Z,13.36
2023-04-11T13:17:38.735Z,13.51
2023-04-11T13:22:48.722Z,13.44
2023-04-11T13:27:47.837Z,13.34
2023-04-11T13:32:45.565Z,13.38
2023-04-11T13:37:44.949Z,13.61
2023-04-11T13:42:41.788Z,13.62
2023-04-11T13:47:38.884Z,13.79
2023-04-11T13:52:36.923Z,14.00
2023-04-11T13:57:33.582Z,14.00
2023-04-11T14:02:30.256Z,14.13
2023-04-11T14:07:27.135Z,14.11
2023-04-11T14:12:24.534Z,14.18
2023-04-11T14:17:24.189Z,14.08
2023-04-11T14:22:20.884Z,13.48
2023-04-11T14:27:17.804Z,13.43
2023-04-11T14:32:15.502Z,13.17
2023-04-11T14:37:12.177Z,12.93
2023-04-11T14:42:09.330Z,12.96
2023-04-11T14:47:08.152Z,12.99
2023-04-11T14:52:05.512Z,12.97
2023-04-11T14:57:03.476Z,12.92
2023-04-11T15:02:00.093Z,12.88
2023-04-11T15:06:56.929Z,13.02
2023-04-11T15:11:56.442Z,13.18
2023-04-11T15:16:53.180Z,13.27
2023-04-11T15:21:50.085Z,13.30
2023-04-11T15:26:47.113Z,13.42
2023-04-11T15:31:45.804Z,13.29
2023-04-11T15:36:44.519Z,13.41
2023-04-11T15:41:41.374Z,13.35
2023-04-11T15:46:38.954Z,13.30
2023-04-11T15:51:37.511Z,13.11
2023-04-11T15:56:34.228Z,13.22
2023-04-11T16:01:31.090Z,13.14
2023-04-11T16:06:28.143Z,13.25
2023-04-11T16:11:25.786Z,12.97
2023-04-11T16:16:22.603Z,13.08
2023-04-11T16:21:24.142Z,13.02
2023-04-11T16:26:20.896Z,13.12
2023-04-11T16:31:23.947Z,13.25
2023-04-11T16:36:24.345Z,13.38
2023-04-11T16:41:20.980Z,13.49
2023-04-11T16:46:17.689Z,13.47
2023-04-11T16:51:18.173Z,13.67
2023-04-11T16:56:17.252Z,13.74
2023-04-11T17:01:13.873Z,13.71
2023-04-11T17:06:14.795Z,13.73
2023-04-11T17:11:12.925Z,13.56
2023-04-11T17:16:15.013Z,13.58
2023-04-11T17:21:23.476Z,13.61
2023-04-11T17:26:21.447Z,13.58
2023-04-11T17:31:19.132Z,13.58
2023-04-11T17:36:15.776Z,13.40
2023-04-11T17:41:15.079Z,13.29
2023-04-11T17:46:13.125Z,13.27
2023-04-11T17:51:09.883Z,13.22
2023-04-11T17:56:07.043Z,13.31
2023-04-11T18:01:18.476Z,13.36
2023-04-11T18:06:28.828Z,13.47
2023-04-11T18:11:25.783Z,13.55
2023-04-11T18:16:22.831Z,13.58
2023-04-11T18:21:20.967Z,13.53
2023-04-11T18:26:22.631Z,13.63
2023-04-11T18:31:19.519Z,13.55
2023-04-11T18:36:16.181Z,13.48
2023-04-11T18:41:14.634Z,13.23
2023-04-11T18:46:15.722Z,12.96
2023-04-11T18:51:12.549Z,12.99
2023-04-11T18:56:11.370Z,13.18
2023-04-11T19:01:16.049Z,13.19
2023-04-11T19:06:14.449Z,13.28
2023-04-11T19:11:11.351Z,13.30
2023-04-11T19:16:08.304Z,12.96
2023-04-11T19:21:05.401Z,13.22
2023-04-11T19:26:02.777Z,13.29
2023-04-11T19:30:59.603Z,12.87
2023-04-11T19:35:56.554Z,12.90
2023-04-11T19:40:56.208Z,12.54
2023-04-11T19:45:53.662Z,12.37
2023-04-11T19:50:51.286Z,12.17
2023-04-11T19:55:50.425Z,12.24
2023-04-11T20:00:47.064Z,12.07
2023-04-11T20:05:44.411Z,11.89
2023-04-11T20:10:41.204Z,11.85
2023-04-11T20:15:37.980Z,11.52
2023-04-11T20:20:36.226Z,11.64
2023-04-11T20:25:34.115Z,11.30
2023-04-11T20:30:31.923Z,10.95
2023-04-11T20:35:28.815Z,11.10
2023-04-11T20:40:25.428Z,10.95
2023-04-11T20:45:25.033Z,11.23
2023-04-11T20:50:21.680Z,11.47
2023-04-11T20:55:20.160Z,11.71
2023-04-11T21:00:17.959Z,11.87
2023-04-11T21:05:15.644Z,12.07
2023-04-11T21:10:12.459Z,12.34
2023-04-11T21:15:09.523Z,12.38
2023-04-11T21:20:11.692Z,12.43
2023-04-11T21:25:09.536Z,12.71
2023-04-11T21:30:06.861Z,12.86
2023-04-11T21:35:05.037Z,12.89
2023-04-11T21:40:02.152Z,12.66
2023-04-11T21:44:59.520Z,12.29
2023-04-11T21:49:59.019Z,11.65
2023-04-11T21:54:55.672Z,11.32
2023-04-11T22:05:14.016Z,11.23
2023-04-11T22:10:11.312Z,11.35
2023-04-11T22:15:10.446Z,11.37
2023-04-11T22:20:08.678Z,11.37
2023-04-11T22:25:07.703Z,11.25
2023-04-11T22:30:04.792Z,11.21
2023-04-11T22:35:01.554Z,11.13
2023-04-11T22:39:58.247Z,11.31
2023-04-11T22:44:55.563Z,11.11
2023-04-11T22:49:52.282Z,11.33
2023-04-11T22:54:48.902Z,11.09
2023-04-11T22:59:45.775Z,11.20
2023-04-11T23:04:43.991Z,11.17
2023-04-11T23:09:40.703Z,11.34
2023-04-11T23:14:37.561Z,11.43
2023-04-11T23:19:36.748Z,11.47
2023-04-11T23:24:33.988Z,11.66
2023-04-11T23:29:31.844Z,11.60
2023-04-11T23:34:28.454Z,11.69
2023-04-11T23:39:25.776Z,11.51
2023-04-11T23:44:24.148Z,11.80
2023-04-11T23:49:23.560Z,12.08
2023-04-11T23:54:20.138Z,12.08
2023-04-11T23:59:16.771Z,12.01
